sensor_id;sensor_type;location;lat;lon;timestamp;pressure;altitude;pressure_sealevel;temperature;humidity
5550;BME280;2798;42.716;23.256;2023-10-31T00:00:08;94911.41;;;15.84;59.27
5550;BME280;2798;42.716;23.256;2023-10-31T00:02:36;94917.41;;;15.85;59.69
5550;BME280;2798;42.716;23.256;2023-10-31T00:05:01;94928.19;;;15.90;59.55
5550;BME280;2798;42.716;23.256;2023-10-31T00:07:27;94927.25;;;15.91;59.64
5550;BME280;2798;42.716;23.256;2023-10-31T00:09:52;94921.91;;;15.92;60.04
5550;BME280;2798;42.716;23.256;2023-10-31T00:12:18;94921.38;;;15.89;59.96
5550;BME280;2798;42.716;23.256;2023-10-31T00:14:43;94922.72;;;15.83;60.01
5550;BME280;2798;42.716;23.256;2023-10-31T00:17:09;94901.19;;;15.73;60.27
5550;BME280;2798;42.716;23.256;2023-10-31T00:19:34;94858.34;;;15.39;60.13
5550;BME280;2798;42.716;23.256;2023-10-31T00:21:59;94907.84;;;15.85;59.96
5550;BME280;2798;42.716;23.256;2023-10-31T00:24:26;94906.91;;;15.86;59.84
5550;BME280;2798;42.716;23.256;2023-10-31T00:26:51;94887.50;;;15.70;59.64
5550;BME280;2798;42.716;23.256;2023-10-31T00:29:17;94892.41;;;15.74;59.71
5550;BME280;2798;42.716;23.256;2023-10-31T00:31:42;94896.00;;;15.73;59.94
5550;BME280;2798;42.716;23.256;2023-10-31T00:34:08;94899.53;;;15.72;59.99
5550;BME280;2798;42.716;23.256;2023-10-31T00:36:34;94874.03;;;15.57;59.99
5550;BME280;2798;42.716;23.256;2023-10-31T00:38:59;94888.06;;;15.64;60.04
5550;BME280;2798;42.716;23.256;2023-10-31T00:41:25;94900.06;;;15.65;60.17
5550;BME280;2798;42.716;23.256;2023-10-31T00:43:50;94883.72;;;15.55;59.99
5550;BME280;2798;42.716;23.256;2023-10-31T00:46:15;94903.22;;;15.59;60.54
5550;BME280;2798;42.716;23.256;2023-10-31T00:48:41;94899.69;;;15.60;60.55
5550;BME280;2798;42.716;23.256;2023-10-31T00:51:06;94891.63;;;15.53;60.52
5550;BME280;2798;42.716;23.256;2023-10-31T00:53:32;94885.06;;;15.59;60.72
5550;BME280;2798;42.716;23.256;2023-10-31T00:55:58;94865.16;;;15.40;60.71
5550;BME280;2798;42.716;23.256;2023-10-31T00:58:23;94872.53;;;15.44;60.85
5550;BME280;2798;42.716;23.256;2023-10-31T01:00:49;94881.00;;;15.47;60.80
5550;BME280;2798;42.716;23.256;2023-10-31T01:03:14;94869.00;;;15.36;60.96
5550;BME280;2798;42.716;23.256;2023-10-31T01:05:40;94876.22;;;15.42;61.35
5550;BME280;2798;42.716;23.256;2023-10-31T01:08:05;94870.75;;;15.45;61.48
5550;BME280;2798;42.716;23.256;2023-10-31T01:10:31;94841.56;;;15.23;61.21
5550;BME280;2798;42.716;23.256;2023-10-31T01:12:56;94837.88;;;15.16;61.25
5550;BME280;2798;42.716;23.256;2023-10-31T01:15:21;94842.78;;;15.19;61.66
5550;BME280;2798;42.716;23.256;2023-10-31T01:17:47;94866.41;;;15.36;61.27
5550;BME280;2798;42.716;23.256;2023-10-31T01:20:12;94867.88;;;15.28;61.73
5550;BME280;2798;42.716;23.256;2023-10-31T01:22:38;94862.31;;;15.23;61.61
5550;BME280;2798;42.716;23.256;2023-10-31T01:25:04;94847.19;;;15.08;61.98
5550;BME280;2798;42.716;23.256;2023-10-31T01:27:30;94861.22;;;15.16;62.42
5550;BME280;2798;42.716;23.256;2023-10-31T01:29:55;94853.03;;;15.11;62.38
5550;BME280;2798;42.716;23.256;2023-10-31T01:32:20;94856.03;;;15.16;62.54
5550;BME280;2798;42.716;23.256;2023-10-31T01:34:46;94840.59;;;15.04;62.64
5550;BME280;2798;42.716;23.256;2023-10-31T01:37:11;94847.69;;;15.12;62.62
5550;BME280;2798;42.716;23.256;2023-10-31T01:39:39;94853.84;;;15.21;62.90
5550;BME280;2798;42.716;23.256;2023-10-31T01:42:04;94842.00;;;15.18;62.66
5550;BME280;2798;42.716;23.256;2023-10-31T01:44:30;94847.84;;;15.11;62.79
5550;BME280;2798;42.716;23.256;2023-10-31T01:46:55;94822.22;;;14.88;62.71
5550;BME280;2798;42.716;23.256;2023-10-31T01:49:21;94821.09;;;14.90;63.09
5550;BME280;2798;42.716;23.256;2023-10-31T01:51:47;94835.16;;;14.88;62.90
5550;BME280;2798;42.716;23.256;2023-10-31T01:54:13;94839.13;;;15.02;63.08
5550;BME280;2798;42.716;23.256;2023-10-31T01:56:40;94845.94;;;15.03;63.41
5550;BME280;2798;42.716;23.256;2023-10-31T01:59:06;94842.81;;;14.99;63.45
5550;BME280;2798;42.716;23.256;2023-10-31T02:01:39;94845.53;;;14.98;63.28
5550;BME280;2798;42.716;23.256;2023-10-31T02:04:07;94828.06;;;14.90;63.18
5550;BME280;2798;42.716;23.256;2023-10-31T02:06:32;94848.00;;;14.99;62.89
5550;BME280;2798;42.716;23.256;2023-10-31T02:08:58;94844.44;;;15.00;63.37
5550;BME280;2798;42.716;23.256;2023-10-31T02:11:23;94850.59;;;14.99;63.18
5550;BME280;2798;42.716;23.256;2023-10-31T02:13:49;94842.13;;;14.97;63.16
5550;BME280;2798;42.716;23.256;2023-10-31T02:16:14;94829.44;;;14.94;62.86
5550;BME280;2798;42.716;23.256;2023-10-31T02:18:40;94828.47;;;14.95;62.63
5550;BME280;2798;42.716;23.256;2023-10-31T02:21:06;94831.06;;;14.95;62.95
5550;BME280;2798;42.716;23.256;2023-10-31T02:23:31;94837.47;;;14.91;63.04
5550;BME280;2798;42.716;23.256;2023-10-31T02:25:57;94801.16;;;14.71;63.14
5550;BME280;2798;42.716;23.256;2023-10-31T02:28:22;94823.41;;;14.83;63.38
5550;BME280;2798;42.716;23.256;2023-10-31T02:30:52;94796.94;;;14.60;63.48
5550;BME280;2798;42.716;23.256;2023-10-31T02:33:18;94835.81;;;14.80;63.23
5550;BME280;2798;42.716;23.256;2023-10-31T02:35:43;94830.53;;;14.81;63.16
5550;BME280;2798;42.716;23.256;2023-10-31T02:38:09;94823.69;;;14.80;63.54
5550;BME280;2798;42.716;23.256;2023-10-31T02:40:34;94826.94;;;14.73;63.62
5550;BME280;2798;42.716;23.256;2023-10-31T02:43:00;94829.66;;;14.71;63.31
5550;BME280;2798;42.716;23.256;2023-10-31T02:45:26;94834.00;;;14.70;63.69
5550;BME280;2798;42.716;23.256;2023-10-31T02:47:52;94836.72;;;14.69;63.69
5550;BME280;2798;42.716;23.256;2023-10-31T02:50:17;94833.47;;;14.67;63.54
5550;BME280;2798;42.716;23.256;2023-10-31T02:52:43;94825.97;;;14.64;63.83
5550;BME280;2798;42.716;23.256;2023-10-31T02:55:08;94829.38;;;14.64;63.95
5550;BME280;2798;42.716;23.256;2023-10-31T02:57:34;94837.00;;;14.66;63.95
5550;BME280;2798;42.716;23.256;2023-10-31T02:59:59;94836.88;;;14.67;64.06
5550;BME280;2798;42.716;23.256;2023-10-31T03:02:24;94824.19;;;14.64;64.15
5550;BME280;2798;42.716;23.256;2023-10-31T03:04:50;94815.47;;;14.55;63.79
5550;BME280;2798;42.716;23.256;2023-10-31T03:07:15;94826.91;;;14.63;63.90
5550;BME280;2798;42.716;23.256;2023-10-31T03:09:41;94836.44;;;14.62;63.85
5550;BME280;2798;42.716;23.256;2023-10-31T03:12:06;94832.22;;;14.61;63.85
5550;BME280;2798;42.716;23.256;2023-10-31T03:14:32;94813.94;;;14.53;64.27
5550;BME280;2798;42.716;23.256;2023-10-31T03:16:57;94827.97;;;14.50;63.94
5550;BME280;2798;42.716;23.256;2023-10-31T03:19:22;94838.78;;;14.55;63.62
5550;BME280;2798;42.716;23.256;2023-10-31T03:21:48;94825.81;;;14.55;64.18
5550;BME280;2798;42.716;23.256;2023-10-31T03:24:13;94797.03;;;14.49;64.22
5550;BME280;2798;42.716;23.256;2023-10-31T03:26:39;94807.97;;;14.52;63.95
5550;BME280;2798;42.716;23.256;2023-10-31T03:29:04;94816.00;;;14.49;64.17
5550;BME280;2798;42.716;23.256;2023-10-31T03:31:29;94816.66;;;14.51;64.42
5550;BME280;2798;42.716;23.256;2023-10-31T03:33:55;94810.13;;;14.47;64.37
5550;BME280;2798;42.716;23.256;2023-10-31T03:36:20;94795.13;;;14.41;64.23
5550;BME280;2798;42.716;23.256;2023-10-31T03:38:46;94802.88;;;14.41;63.81
5550;BME280;2798;42.716;23.256;2023-10-31T03:41:11;94814.03;;;14.41;64.00
5550;BME280;2798;42.716;23.256;2023-10-31T03:43:38;94799.03;;;14.35;64.13
5550;BME280;2798;42.716;23.256;2023-10-31T03:46:04;94819.91;;;14.43;63.97
5550;BME280;2798;42.716;23.256;2023-10-31T03:48:29;94812.69;;;14.37;64.31
5550;BME280;2798;42.716;23.256;2023-10-31T03:50:55;94810.50;;;14.32;64.76
5550;BME280;2798;42.716;23.256;2023-10-31T03:53:20;94823.88;;;14.38;64.81
5550;BME280;2798;42.716;23.256;2023-10-31T03:55:45;94809.66;;;14.32;64.37
5550;BME280;2798;42.716;23.256;2023-10-31T03:58:11;94804.63;;;14.30;64.76
5550;BME280;2798;42.716;23.256;2023-10-31T04:00:38;94813.22;;;14.31;64.55
5550;BME280;2798;42.716;23.256;2023-10-31T04:03:04;94801.75;;;14.24;64.80
5550;BME280;2798;42.716;23.256;2023-10-31T04:05:29;94808.03;;;14.31;64.81
5550;BME280;2798;42.716;23.256;2023-10-31T04:07:55;94796.44;;;14.25;64.92
5550;BME280;2798;42.716;23.256;2023-10-31T04:10:20;94785.41;;;14.23;64.38
5550;BME280;2798;42.716;23.256;2023-10-31T04:12:46;94787.31;;;14.21;63.87
5550;BME280;2798;42.716;23.256;2023-10-31T04:15:11;94784.16;;;14.17;64.08
5550;BME280;2798;42.716;23.256;2023-10-31T04:17:37;94786.34;;;14.22;64.32
5550;BME280;2798;42.716;23.256;2023-10-31T04:20:03;94781.72;;;14.26;64.25
5550;BME280;2798;42.716;23.256;2023-10-31T04:22:29;94785.25;;;14.15;64.28
5550;BME280;2798;42.716;23.256;2023-10-31T04:24:55;94795.03;;;14.11;64.22
5550;BME280;2798;42.716;23.256;2023-10-31T04:27:20;94794.59;;;14.06;64.47
5550;BME280;2798;42.716;23.256;2023-10-31T04:29:46;94780.44;;;14.00;64.54
5550;BME280;2798;42.716;23.256;2023-10-31T04:32:11;94789.00;;;13.91;64.48
5550;BME280;2798;42.716;23.256;2023-10-31T04:34:37;94780.31;;;14.02;65.10
5550;BME280;2798;42.716;23.256;2023-10-31T04:37:02;94783.72;;;14.02;64.40
5550;BME280;2798;42.716;23.256;2023-10-31T04:39:27;94791.06;;;13.97;64.62
5550;BME280;2798;42.716;23.256;2023-10-31T04:41:53;94789.97;;;14.00;64.65
5550;BME280;2798;42.716;23.256;2023-10-31T04:44:18;94798.94;;;13.95;64.60
5550;BME280;2798;42.716;23.256;2023-10-31T04:46:44;94812.56;;;13.98;64.91
5550;BME280;2798;42.716;23.256;2023-10-31T04:49:09;94811.06;;;13.95;64.75
5550;BME280;2798;42.716;23.256;2023-10-31T04:51:38;94797.34;;;13.73;65.27
5550;BME280;2798;42.716;23.256;2023-10-31T04:54:04;94819.19;;;13.90;65.04
5550;BME280;2798;42.716;23.256;2023-10-31T04:56:30;94810.06;;;13.86;65.13
5550;BME280;2798;42.716;23.256;2023-10-31T04:58:55;94809.19;;;13.76;65.20
5550;BME280;2798;42.716;23.256;2023-10-31T05:01:21;94817.00;;;13.86;65.54
5550;BME280;2798;42.716;23.256;2023-10-31T05:03:46;94770.88;;;13.59;65.68
5550;BME280;2798;42.716;23.256;2023-10-31T05:06:12;94800.47;;;13.77;65.83
5550;BME280;2798;42.716;23.256;2023-10-31T05:08:37;94790.56;;;13.82;66.04
5550;BME280;2798;42.716;23.256;2023-10-31T05:11:03;94749.34;;;13.59;65.68
5550;BME280;2798;42.716;23.256;2023-10-31T05:13:28;94818.91;;;13.83;65.75
5550;BME280;2798;42.716;23.256;2023-10-31T05:15:54;94795.09;;;13.90;65.64
5550;BME280;2798;42.716;23.256;2023-10-31T05:18:19;94801.63;;;13.84;65.59
5550;BME280;2798;42.716;23.256;2023-10-31T05:20:45;94806.47;;;13.77;65.45
5550;BME280;2798;42.716;23.256;2023-10-31T05:23:10;94815.13;;;13.88;65.00
5550;BME280;2798;42.716;23.256;2023-10-31T05:25:36;94809.50;;;13.82;65.33
5550;BME280;2798;42.716;23.256;2023-10-31T05:28:01;94818.22;;;13.81;65.02
5550;BME280;2798;42.716;23.256;2023-10-31T05:30:27;94823.41;;;13.81;65.31
5550;BME280;2798;42.716;23.256;2023-10-31T05:32:52;94821.06;;;13.78;65.10
5550;BME280;2798;42.716;23.256;2023-10-31T05:35:18;94809.84;;;13.68;64.76
5550;BME280;2798;42.716;23.256;2023-10-31T05:37:45;94821.91;;;13.89;64.50
5550;BME280;2798;42.716;23.256;2023-10-31T05:40:12;94813.47;;;13.87;64.41
5550;BME280;2798;42.716;23.256;2023-10-31T05:42:38;94825.41;;;13.78;64.47
5550;BME280;2798;42.716;23.256;2023-10-31T05:45:04;94817.97;;;13.84;64.13
5550;BME280;2798;42.716;23.256;2023-10-31T05:47:29;94818.19;;;13.71;64.75
5550;BME280;2798;42.716;23.256;2023-10-31T05:49:54;94836.47;;;13.90;64.75
5550;BME280;2798;42.716;23.256;2023-10-31T05:52:20;94851.34;;;13.88;64.87
5550;BME280;2798;42.716;23.256;2023-10-31T05:54:45;94835.94;;;13.86;64.75
5550;BME280;2798;42.716;23.256;2023-10-31T05:57:11;94832.09;;;13.80;64.78
5550;BME280;2798;42.716;23.256;2023-10-31T05:59:36;94839.19;;;13.78;64.83
5550;BME280;2798;42.716;23.256;2023-10-31T06:02:02;94836.34;;;13.81;65.16
5550;BME280;2798;42.716;23.256;2023-10-31T06:04:27;94871.50;;;13.94;64.63
5550;BME280;2798;42.716;23.256;2023-10-31T06:06:53;94873.41;;;13.92;64.94
5550;BME280;2798;42.716;23.256;2023-10-31T06:09:18;94865.13;;;13.98;64.39
5550;BME280;2798;42.716;23.256;2023-10-31T06:11:43;94868.28;;;14.02;64.14
5550;BME280;2798;42.716;23.256;2023-10-31T06:14:10;94860.78;;;13.99;64.15
5550;BME280;2798;42.716;23.256;2023-10-31T06:16:43;94864.47;;;14.06;64.38
5550;BME280;2798;42.716;23.256;2023-10-31T06:19:09;94833.63;;;13.93;65.57
5550;BME280;2798;42.716;23.256;2023-10-31T06:21:35;94853.00;;;13.99;65.98
5550;BME280;2798;42.716;23.256;2023-10-31T06:24:00;94854.91;;;13.96;65.87
5550;BME280;2798;42.716;23.256;2023-10-31T06:26:25;94862.09;;;13.93;66.34
5550;BME280;2798;42.716;23.256;2023-10-31T06:28:51;94858.00;;;13.90;66.36
5550;BME280;2798;42.716;23.256;2023-10-31T06:31:16;94862.31;;;13.80;66.83
5550;BME280;2798;42.716;23.256;2023-10-31T06:33:42;94855.50;;;13.79;66.99
5550;BME280;2798;42.716;23.256;2023-10-31T06:36:07;94848.69;;;13.78;67.49
5550;BME280;2798;42.716;23.256;2023-10-31T06:38:33;94852.78;;;13.80;67.69
5550;BME280;2798;42.716;23.256;2023-10-31T06:40:58;94835.06;;;13.76;67.97
5550;BME280;2798;42.716;23.256;2023-10-31T06:43:24;94846.69;;;13.81;68.08
5550;BME280;2798;42.716;23.256;2023-10-31T06:45:50;94837.56;;;13.87;67.92
5550;BME280;2798;42.716;23.256;2023-10-31T06:48:15;94838.94;;;13.91;68.02
5550;BME280;2798;42.716;23.256;2023-10-31T06:50:40;94842.94;;;13.95;68.08
5550;BME280;2798;42.716;23.256;2023-10-31T06:53:06;94821.75;;;13.80;68.09
5550;BME280;2798;42.716;23.256;2023-10-31T06:55:31;94868.41;;;14.00;67.93
5550;BME280;2798;42.716;23.256;2023-10-31T06:57:56;94851.78;;;14.03;68.07
5550;BME280;2798;42.716;23.256;2023-10-31T07:00:22;94856.31;;;14.11;67.84
5550;BME280;2798;42.716;23.256;2023-10-31T07:02:48;94834.78;;;14.00;68.43
5550;BME280;2798;42.716;23.256;2023-10-31T07:05:13;94849.56;;;14.19;68.43
5550;BME280;2798;42.716;23.256;2023-10-31T07:07:40;94850.78;;;14.25;68.41
5550;BME280;2798;42.716;23.256;2023-10-31T07:10:06;94847.56;;;14.33;68.48
5550;BME280;2798;42.716;23.256;2023-10-31T07:12:31;94800.91;;;14.13;68.53
5550;BME280;2798;42.716;23.256;2023-10-31T07:14:57;94801.34;;;14.18;68.69
5550;BME280;2798;42.716;23.256;2023-10-31T07:17:24;94829.06;;;14.48;68.76
5550;BME280;2798;42.716;23.256;2023-10-31T07:19:49;94822.53;;;14.53;68.65
5550;BME280;2798;42.716;23.256;2023-10-31T07:22:15;94829.63;;;14.61;68.49
5550;BME280;2798;42.716;23.256;2023-10-31T07:24:40;94822.28;;;14.66;68.73
5550;BME280;2798;42.716;23.256;2023-10-31T07:27:06;94831.84;;;14.76;68.82
5550;BME280;2798;42.716;23.256;2023-10-31T07:29:31;94808.22;;;14.69;68.47
5550;BME280;2798;42.716;23.256;2023-10-31T07:31:57;94827.38;;;14.88;68.81
5550;BME280;2798;42.716;23.256;2023-10-31T07:34:22;94819.06;;;14.94;68.84
5550;BME280;2798;42.716;23.256;2023-10-31T07:36:48;94825.34;;;15.01;68.67
5550;BME280;2798;42.716;23.256;2023-10-31T07:39:13;94817.97;;;15.06;68.73
5550;BME280;2798;42.716;23.256;2023-10-31T07:41:39;94817.97;;;15.16;68.67
5550;BME280;2798;42.716;23.256;2023-10-31T07:44:06;94813.47;;;15.18;68.69
5550;BME280;2798;42.716;23.256;2023-10-31T07:46:31;94831.31;;;15.31;68.85
5550;BME280;2798;42.716;23.256;2023-10-31T07:48:56;94821.06;;;15.40;68.33
5550;BME280;2798;42.716;23.256;2023-10-31T07:51:22;94813.00;;;15.43;68.23
5550;BME280;2798;42.716;23.256;2023-10-31T07:53:47;94803.31;;;15.55;67.86
5550;BME280;2798;42.716;23.256;2023-10-31T07:56:17;94797.00;;;15.57;67.52
5550;BME280;2798;42.716;23.256;2023-10-31T07:58:43;94799.88;;;15.64;67.27
5550;BME280;2798;42.716;23.256;2023-10-31T08:01:08;94799.84;;;15.74;66.79
5550;BME280;2798;42.716;23.256;2023-10-31T08:03:36;94794.91;;;15.81;66.52
5550;BME280;2798;42.716;23.256;2023-10-31T08:06:05;94797.75;;;15.88;66.04
5550;BME280;2798;42.716;23.256;2023-10-31T08:08:30;94788.88;;;15.90;65.77
5550;BME280;2798;42.716;23.256;2023-10-31T08:10:55;94753.69;;;15.78;65.45
5550;BME280;2798;42.716;23.256;2023-10-31T08:13:22;94788.97;;;16.09;65.69
5550;BME280;2798;42.716;23.256;2023-10-31T08:15:47;94786.72;;;16.14;65.31
5550;BME280;2798;42.716;23.256;2023-10-31T08:18:13;94772.28;;;16.11;65.29
5550;BME280;2798;42.716;23.256;2023-10-31T08:20:38;94783.66;;;16.28;65.57
5550;BME280;2798;42.716;23.256;2023-10-31T08:23:04;94766.84;;;16.33;65.00
5550;BME280;2798;42.716;23.256;2023-10-31T08:25:29;94761.88;;;16.39;64.54
5550;BME280;2798;42.716;23.256;2023-10-31T08:27:54;94756.88;;;16.46;64.59
5550;BME280;2798;42.716;23.256;2023-10-31T08:30:20;94756.19;;;16.54;64.46
5550;BME280;2798;42.716;23.256;2023-10-31T08:32:45;94752.59;;;16.55;64.47
5550;BME280;2798;42.716;23.256;2023-10-31T08:35:11;94760.81;;;16.68;64.13
5550;BME280;2798;42.716;23.256;2023-10-31T08:37:36;94748.34;;;16.72;64.02
5550;BME280;2798;42.716;23.256;2023-10-31T08:40:02;94736.41;;;16.79;63.76
5550;BME280;2798;42.716;23.256;2023-10-31T08:42:29;94746.88;;;16.88;63.65
5550;BME280;2798;42.716;23.256;2023-10-31T08:44:55;94714.34;;;16.84;63.61
5550;BME280;2798;42.716;23.256;2023-10-31T08:47:20;94716.25;;;17.00;63.48
5550;BME280;2798;42.716;23.256;2023-10-31T08:49:46;94723.44;;;17.06;63.30
5550;BME280;2798;42.716;23.256;2023-10-31T08:52:11;94713.44;;;17.11;63.06
5550;BME280;2798;42.716;23.256;2023-10-31T08:54:37;94711.00;;;17.10;62.79
5550;BME280;2798;42.716;23.256;2023-10-31T08:57:02;94728.97;;;17.21;62.65
5550;BME280;2798;42.716;23.256;2023-10-31T08:59:28;94714.19;;;17.30;62.75
5550;BME280;2798;42.716;23.256;2023-10-31T09:01:53;94711.97;;;17.35;62.19
5550;BME280;2798;42.716;23.256;2023-10-31T09:04:18;94696.19;;;17.37;62.30
5550;BME280;2798;42.716;23.256;2023-10-31T09:06:44;94695.94;;;17.48;61.92
5550;BME280;2798;42.716;23.256;2023-10-31T09:09:09;94693.69;;;17.53;62.06
5550;BME280;2798;42.716;23.256;2023-10-31T09:11:35;94684.44;;;17.59;62.01
5550;BME280;2798;42.716;23.256;2023-10-31T09:14:01;94683.00;;;17.65;61.51
5550;BME280;2798;42.716;23.256;2023-10-31T09:16:26;94668.50;;;17.62;61.08
5550;BME280;2798;42.716;23.256;2023-10-31T09:18:52;94670.03;;;17.73;60.59
5550;BME280;2798;42.716;23.256;2023-10-31T09:21:17;94665.66;;;17.82;60.65
5550;BME280;2798;42.716;23.256;2023-10-31T09:23:43;94665.84;;;17.89;60.59
5550;BME280;2798;42.716;23.256;2023-10-31T09:26:08;94667.81;;;17.95;60.22
5550;BME280;2798;42.716;23.256;2023-10-31T09:28:35;94664.56;;;18.01;60.33
5550;BME280;2798;42.716;23.256;2023-10-31T09:31:01;94641.94;;;17.94;60.28
5550;BME280;2798;42.716;23.256;2023-10-31T09:33:27;94664.59;;;18.10;60.09
5550;BME280;2798;42.716;23.256;2023-10-31T09:35:52;94649.81;;;18.19;60.04
5550;BME280;2798;42.716;23.256;2023-10-31T09:38:17;94640.56;;;18.24;59.95
5550;BME280;2798;42.716;23.256;2023-10-31T09:40:43;94647.72;;;18.31;59.87
5550;BME280;2798;42.716;23.256;2023-10-31T09:43:08;94641.22;;;18.35;59.55
5550;BME280;2798;42.716;23.256;2023-10-31T09:45:34;94630.63;;;18.45;59.45
5550;BME280;2798;42.716;23.256;2023-10-31T09:48:01;94619.56;;;18.51;59.33
5550;BME280;2798;42.716;23.256;2023-10-31T09:50:28;94614.50;;;18.58;59.40
5550;BME280;2798;42.716;23.256;2023-10-31T09:52:56;94614.50;;;18.66;58.52
5550;BME280;2798;42.716;23.256;2023-10-31T09:55:22;94615.63;;;18.72;58.75
5550;BME280;2798;42.716;23.256;2023-10-31T09:57:48;94596.91;;;18.76;58.48
5550;BME280;2798;42.716;23.256;2023-10-31T10:00:13;94586.31;;;18.78;58.40
5550;BME280;2798;42.716;23.256;2023-10-31T10:02:40;94589.22;;;18.92;58.05
5550;BME280;2798;42.716;23.256;2023-10-31T10:05:06;94581.84;;;19.03;57.06
5550;BME280;2798;42.716;23.256;2023-10-31T10:07:33;94579.72;;;19.07;56.41
5550;BME280;2798;42.716;23.256;2023-10-31T10:09:58;94576.75;;;19.19;56.01
5550;BME280;2798;42.716;23.256;2023-10-31T10:12:27;94568.25;;;19.25;55.60
5550;BME280;2798;42.716;23.256;2023-10-31T10:14:53;94471.94;;;18.75;55.42
5550;BME280;2798;42.716;23.256;2023-10-31T10:17:22;94556.16;;;19.41;55.46
5550;BME280;2798;42.716;23.256;2023-10-31T10:20:07;94556.13;;;19.49;55.05
5550;BME280;2798;42.716;23.256;2023-10-31T10:22:42;94551.00;;;19.56;54.92
5550;BME280;2798;42.716;23.256;2023-10-31T10:25:08;94553.09;;;19.60;54.81
5550;BME280;2798;42.716;23.256;2023-10-31T10:27:34;94545.88;;;19.71;54.45
5550;BME280;2798;42.716;23.256;2023-10-31T10:30:01;94544.53;;;19.75;54.21
5550;BME280;2798;42.716;23.256;2023-10-31T10:32:27;94554.13;;;19.83;53.74
5550;BME280;2798;42.716;23.256;2023-10-31T10:34:54;94547.38;;;19.88;53.41
5550;BME280;2798;42.716;23.256;2023-10-31T10:37:20;94539.03;;;19.93;53.45
5550;BME280;2798;42.716;23.256;2023-10-31T10:39:51;94530.66;;;19.98;53.19
5550;BME280;2798;42.716;23.256;2023-10-31T10:42:33;94507.47;;;20.03;52.93
5550;BME280;2798;42.716;23.256;2023-10-31T10:45:03;94513.44;;;20.12;52.70
5550;BME280;2798;42.716;23.256;2023-10-31T10:47:31;94497.69;;;20.20;52.55
5550;BME280;2798;42.716;23.256;2023-10-31T10:50:01;94494.38;;;20.26;52.42
5550;BME280;2798;42.716;23.256;2023-10-31T10:52:38;94493.88;;;20.31;52.20
5550;BME280;2798;42.716;23.256;2023-10-31T10:55:13;94491.50;;;20.36;52.01
5550;BME280;2798;42.716;23.256;2023-10-31T10:58:00;94484.03;;;20.33;51.67
5550;BME280;2798;42.716;23.256;2023-10-31T11:00:26;94493.69;;;20.48;51.39
5550;BME280;2798;42.716;23.256;2023-10-31T11:02:52;94489.38;;;20.55;50.91
5550;BME280;2798;42.716;23.256;2023-10-31T11:05:19;94485.22;;;20.61;50.20
5550;BME280;2798;42.716;23.256;2023-10-31T11:07:45;94474.13;;;20.59;49.90
5550;BME280;2798;42.716;23.256;2023-10-31T11:10:11;94482.72;;;20.68;49.72
5550;BME280;2798;42.716;23.256;2023-10-31T11:12:37;94476.28;;;20.70;49.90
5550;BME280;2798;42.716;23.256;2023-10-31T11:15:05;94470.69;;;20.73;49.57
5550;BME280;2798;42.716;23.256;2023-10-31T11:17:36;94462.31;;;20.78;49.27
5550;BME280;2798;42.716;23.256;2023-10-31T11:20:03;94467.19;;;20.81;49.14
5550;BME280;2798;42.716;23.256;2023-10-31T11:22:43;94451.94;;;20.85;48.78
5550;BME280;2798;42.716;23.256;2023-10-31T11:25:13;94444.91;;;20.85;48.32
5550;BME280;2798;42.716;23.256;2023-10-31T11:27:39;94440.50;;;20.86;47.93
5550;BME280;2798;42.716;23.256;2023-10-31T11:30:08;94437.19;;;20.92;47.47
5550;BME280;2798;42.716;23.256;2023-10-31T11:32:33;94443.84;;;20.95;47.45
5550;BME280;2798;42.716;23.256;2023-10-31T11:34:59;94439.25;;;20.97;47.11
5550;BME280;2798;42.716;23.256;2023-10-31T11:37:33;94426.78;;;20.99;46.98
5550;BME280;2798;42.716;23.256;2023-10-31T11:42:43;94416.22;;;21.07;46.10
5550;BME280;2798;42.716;23.256;2023-10-31T11:45:09;94419.47;;;21.09;45.67
5550;BME280;2798;42.716;23.256;2023-10-31T11:47:50;94421.88;;;21.11;45.40
5550;BME280;2798;42.716;23.256;2023-10-31T11:50:17;94422.34;;;21.15;45.26
5550;BME280;2798;42.716;23.256;2023-10-31T11:52:43;94415.09;;;21.17;44.67
5550;BME280;2798;42.716;23.256;2023-10-31T11:55:09;94424.22;;;21.21;44.29
5550;BME280;2798;42.716;23.256;2023-10-31T11:57:35;94408.50;;;21.21;44.44
5550;BME280;2798;42.716;23.256;2023-10-31T12:00:02;94402.47;;;21.20;44.01
5550;BME280;2798;42.716;23.256;2023-10-31T12:02:29;94408.06;;;21.17;44.04
5550;BME280;2798;42.716;23.256;2023-10-31T12:05:15;94402.91;;;21.24;43.94
5550;BME280;2798;42.716;23.256;2023-10-31T12:07:44;94392.06;;;21.27;43.37
5550;BME280;2798;42.716;23.256;2023-10-31T12:10:11;94382.59;;;21.26;42.36
5550;BME280;2798;42.716;23.256;2023-10-31T12:12:37;94382.03;;;21.31;41.39
5550;BME280;2798;42.716;23.256;2023-10-31T12:15:08;94381.84;;;21.32;41.46
5550;BME280;2798;42.716;23.256;2023-10-31T12:17:35;94391.00;;;21.43;41.59
5550;BME280;2798;42.716;23.256;2023-10-31T12:20:05;94386.41;;;21.45;41.19
5550;BME280;2798;42.716;23.256;2023-10-31T12:22:30;94381.66;;;21.56;41.65
5550;BME280;2798;42.716;23.256;2023-10-31T12:25:06;94375.47;;;21.64;41.54
5550;BME280;2798;42.716;23.256;2023-10-31T12:30:08;94367.19;;;21.82;41.56
5550;BME280;2798;42.716;23.256;2023-10-31T12:32:34;94365.44;;;21.89;40.81
5550;BME280;2798;42.716;23.256;2023-10-31T12:35:00;94353.56;;;21.93;40.32
5550;BME280;2798;42.716;23.256;2023-10-31T12:37:25;94344.94;;;22.00;40.03
5550;BME280;2798;42.716;23.256;2023-10-31T12:39:51;94335.84;;;22.02;40.12
5550;BME280;2798;42.716;23.256;2023-10-31T12:42:17;94331.25;;;22.04;40.10
5550;BME280;2798;42.716;23.256;2023-10-31T12:44:43;94326.00;;;22.04;39.99
5550;BME280;2798;42.716;23.256;2023-10-31T12:47:08;94322.59;;;22.04;39.68
5550;BME280;2798;42.716;23.256;2023-10-31T12:49:34;94323.97;;;22.00;40.12
5550;BME280;2798;42.716;23.256;2023-10-31T12:52:01;94337.06;;;22.00;40.17
5550;BME280;2798;42.716;23.256;2023-10-31T12:54:31;94344.31;;;21.97;40.15
5550;BME280;2798;42.716;23.256;2023-10-31T12:57:03;94324.94;;;21.92;40.47
5550;BME280;2798;42.716;23.256;2023-10-31T12:59:30;94341.28;;;21.94;40.63
5550;BME280;2798;42.716;23.256;2023-10-31T13:01:56;94339.63;;;21.93;40.81
5550;BME280;2798;42.716;23.256;2023-10-31T13:04:28;94344.09;;;21.92;41.01
5550;BME280;2798;42.716;23.256;2023-10-31T13:07:02;94338.84;;;21.92;41.22
5550;BME280;2798;42.716;23.256;2023-10-31T13:09:32;94330.38;;;21.90;40.79